Time;durP1;ratioP1;P1;durP2;ratioP2;P2;SDS_P1;SDS_P2;PMS_P1;PMS_P2;Temp;Humidity;BMP_temperature;BMP_pressure;BME280_temperature;BME280_humidity;BME280_pressure;Samples;Min_cycle;Max_cycle;Signal;HPM_P1;HPM_P2
2023/11/12 00:01:08;;;;;;;10.80;8.40;;;;;;;10.75;100.00;97490.08;106158;1252;60275;-80
2023/11/12 00:03:35;;;;;;;8.60;7.10;;;;;;;10.72;100.00;97483.29;106084;1251;72816;-79
2023/11/12 00:06:02;;;;;;;9.00;7.40;;;;;;;10.69;100.00;97480.36;106330;1251;70198;-79
2023/11/12 00:08:31;;;;;;;8.50;7.40;;;;;;;10.68;100.00;97473.88;106276;1251;72682;-81
2023/11/12 00:10:58;;;;;;;7.90;7.10;;;;;;;10.66;100.00;97469.80;106621;1255;59714;-79
2023/11/12 00:13:25;;;;;;;9.80;7.00;;;;;;;10.62;100.00;97467.27;106584;1255;59621;-79
2023/11/12 00:15:53;;;;;;;8.50;6.00;;;;;;;10.59;100.00;97462.30;106499;1254;71575;-78
2023/11/12 00:18:20;;;;;;;8.20;6.30;;;;;;;10.53;100.00;97459.48;106957;1251;70335;-81
2023/11/12 00:20:46;;;;;;;7.80;6.90;;;;;;;10.50;100.00;97454.58;107169;1252;72383;-77
2023/11/12 00:23:13;;;;;;;7.10;6.40;;;;;;;10.45;100.00;97451.98;107045;1251;59615;-79
2023/11/12 00:25:40;;;;;;;6.20;5.10;;;;;;;10.41;100.00;97444.06;106987;1252;59677;-79
2023/11/12 00:28:07;;;;;;;8.40;6.20;;;;;;;10.39;100.00;97446.98;106324;1255;73064;-81
2023/11/12 00:30:34;;;;;;;6.70;5.80;;;;;;;10.39;100.00;97438.61;106254;1251;70128;-78
2023/11/12 00:33:01;;;;;;;6.60;5.90;;;;;;;10.41;100.00;97438.34;106434;1251;73994;-78
2023/11/12 00:35:28;;;;;;;6.10;5.50;;;;;;;10.41;100.00;97431.23;106066;1254;60176;-78
2023/11/12 00:37:55;;;;;;;7.50;5.70;;;;;;;10.35;100.00;97429.84;105902;1251;59703;-78
2023/11/12 00:40:22;;;;;;;6.40;5.80;;;;;;;10.30;100.00;97428.65;106080;1256;70597;-77
2023/11/12 00:42:48;;;;;;;8.20;6.90;;;;;;;10.25;100.00;97424.17;106129;1251;70176;-78
2023/11/12 00:45:16;;;;;;;7.50;6.50;;;;;;;10.24;100.00;97416.19;105963;1257;72915;-76
2023/11/12 00:47:42;;;;;;;6.90;6.20;;;;;;;10.26;100.00;97413.84;105813;1251;60179;-78
2023/11/12 00:50:09;;;;;;;8.50;6.70;;;;;;;10.28;100.00;97406.30;106053;1251;59698;-80
2023/11/12 00:52:36;;;;;;;7.40;6.60;;;;;;;10.34;100.00;97403.06;106234;1251;73098;-79
2023/11/12 00:55:03;;;;;;;7.90;7.10;;;;;;;10.38;100.00;97401.41;106542;1251;68792;-78
2023/11/12 00:57:30;;;;;;;11.20;10.10;;;;;;;10.41;100.00;97399.06;106052;1252;72497;-78
2023/11/12 00:59:57;;;;;;;8.60;6.50;;;;;;;10.46;100.00;97396.38;105943;1259;60050;-76
2023/11/12 01:02:23;;;;;;;8.20;7.40;;;;;;;10.45;100.00;97393.70;105882;1256;62979;-75
2023/11/12 01:04:50;;;;;;;7.60;6.80;;;;;;;10.44;100.00;97386.07;106070;1256;73389;-75
2023/11/12 01:07:19;;;;;;;15.40;8.00;;;;;;;10.45;100.00;97384.19;106081;1251;59841;-75
2023/11/12 01:09:46;;;;;;;8.70;7.40;;;;;;;10.49;100.00;97376.02;106140;1254;72676;-75
2023/11/12 01:12:13;;;;;;;7.30;6.60;;;;;;;10.53;100.00;97374.70;106517;1254;60213;-76
2023/11/12 01:14:40;;;;;;;6.60;5.90;;;;;;;10.54;100.00;97372.27;106739;1256;59654;-76
2023/11/12 01:17:06;;;;;;;5.10;4.60;;;;;;;10.52;100.00;97368.20;106435;1254;72899;-80
2023/11/12 01:19:34;;;;;;;6.60;4.80;;;;;;;10.53;100.00;97365.17;106466;1251;70102;-78
2023/11/12 01:22:00;;;;;;;7.00;6.00;;;;;;;10.51;100.00;97362.80;106089;1256;72306;-79
2023/11/12 01:24:27;;;;;;;7.40;6.20;;;;;;;10.52;100.00;97359.30;106155;1256;59660;-82
2023/11/12 01:26:54;;;;;;;6.90;6.20;;;;;;;10.54;100.00;97355.61;106458;1256;60060;-78
2023/11/12 01:29:21;;;;;;;6.40;5.70;;;;;;;10.53;100.00;97352.39;106147;1257;73464;-76
2023/11/12 01:31:48;;;;;;;6.60;6.00;;;;;;;10.54;100.00;97347.68;106159;1256;68950;-78
2023/11/12 01:34:14;;;;;;;5.90;5.30;;;;;;;10.55;100.00;97348.04;106162;1256;71378;-77
2023/11/12 01:36:41;;;;;;;5.70;5.10;;;;;;;10.54;100.00;97343.34;105966;1253;59561;-77
2023/11/12 01:39:08;;;;;;;5.90;5.30;;;;;;;10.52;100.00;97343.21;106065;1251;60356;-78
2023/11/12 01:41:35;;;;;;;5.20;4.70;;;;;;;10.47;100.00;97339.27;106175;1257;73992;-78
2023/11/12 01:44:02;;;;;;;5.00;4.50;;;;;;;10.46;100.00;97333.63;105802;1259;69209;-77
2023/11/12 01:46:29;;;;;;;5.60;4.60;;;;;;;10.45;100.00;97332.94;105886;1254;71599;-78
2023/11/12 01:48:57;;;;;;;4.20;3.80;;;;;;;10.41;100.00;97331.02;105998;1251;60986;-78
2023/11/12 01:51:24;;;;;;;4.20;3.60;;;;;;;10.38;100.00;97333.48;106264;1257;59618;-81
2023/11/12 01:53:51;;;;;;;3.20;2.90;;;;;;;10.39;100.00;97328.53;106581;1251;71570;-76
2023/11/12 01:56:19;;;;;;;4.20;3.30;;;;;;;10.38;100.00;97328.17;107867;1253;69443;-76
2023/11/12 01:58:49;;;;;;;3.00;2.80;;;;;;;10.40;100.00;97319.13;107218;1252;71391;-79
2023/11/12 02:01:16;;;;;;;3.30;2.40;;;;;;;10.42;100.00;97321.31;106236;1253;59612;-76
2023/11/12 02:03:43;;;;;;;3.50;2.80;;;;;;;10.40;100.00;97322.18;106273;1250;60266;-78
2023/11/12 02:06:12;;;;;;;4.00;2.90;;;;;;;10.35;100.00;97319.60;106252;1256;74448;-79
2023/11/12 02:08:42;;;;;;;2.50;2.10;;;;;;;10.28;100.00;97316.95;106386;1257;70487;-75
2023/11/12 02:11:11;;;;;;;2.60;2.40;;;;;;;10.24;100.00;97315.52;106099;1256;71220;-78
2023/11/12 02:13:41;;;;;;;3.40;2.60;;;;;;;10.24;100.00;97317.31;106077;1257;59605;-77
2023/11/12 02:16:09;;;;;;;3.10;2.80;;;;;;;10.24;100.00;97312.54;106322;1254;59535;-79
2023/11/12 02:18:36;;;;;;;3.20;2.80;;;;;;;10.17;100.00;97310.72;106423;1256;72868;-76
2023/11/12 02:21:03;;;;;;;3.40;2.40;;;;;;;10.05;100.00;97308.63;106467;1252;70102;-82
2023/11/12 02:23:37;;;;;;;3.60;2.80;;;;;;;9.95;100.00;97302.96;107977;1253;71236;-84
2023/11/12 02:26:04;;;;;;;4.10;3.30;;;;;;;9.87;100.00;97304.65;107485;1259;60726;-86
2023/11/12 02:28:31;;;;;;;6.00;4.70;;;;;;;9.83;100.00;97303.80;106346;1253;59555;-82
2023/11/12 02:30:59;;;;;;;12.30;8.40;;;;;;;9.77;100.00;97305.02;106504;1257;72824;-83
2023/11/12 02:33:27;;;;;;;4.50;3.60;;;;;;;9.74;100.00;97303.27;106261;1257;68898;-82
2023/11/12 02:35:55;;;;;;;5.50;3.60;;;;;;;9.71;100.00;97307.06;106434;1256;71476;-77
2023/11/12 02:38:23;;;;;;;4.10;2.60;;;;;;;9.68;100.00;97304.32;105931;1257;61860;-79
2023/11/12 02:40:50;;;;;;;2.60;2.10;;;;;;;9.69;100.00;97301.61;106197;1253;60485;-79
2023/11/12 02:43:19;;;;;;;2.30;1.80;;;;;;;9.72;100.00;97301.85;105979;1256;72813;-78
2023/11/12 02:45:47;;;;;;;1.40;1.30;;;;;;;9.73;100.00;97300.86;105914;1257;69047;-77
2023/11/12 02:48:14;;;;;;;1.50;1.40;;;;;;;9.73;100.00;97299.60;106191;1257;72488;-78
2023/11/12 02:50:41;;;;;;;0.90;0.90;;;;;;;9.66;100.00;97300.66;106130;1251;60155;-80
2023/11/12 02:53:10;;;;;;;4.40;2.90;;;;;;;9.59;100.00;97299.35;105986;1251;60554;-76
2023/11/12 02:55:37;;;;;;;1.50;1.40;;;;;;;9.52;100.00;97299.39;106054;1256;71904;-75
2023/11/12 02:58:03;;;;;;;1.20;1.00;;;;;;;9.47;100.00;97297.79;105983;1257;69046;-76
2023/11/12 03:00:30;;;;;;;1.60;1.00;;;;;;;9.44;100.00;97293.58;106010;1251;59736;-77
2023/11/12 03:02:58;;;;;;;3.30;1.40;;;;;;;9.39;100.00;97298.10;105940;1252;62085;-77
2023/11/12 03:05:26;;;;;;;1.40;1.20;;;;;;;9.39;100.00;97298.11;106030;1252;60705;-77
2023/11/12 03:07:53;;;;;;;1.10;1.00;;;;;;;9.40;100.00;97295.31;106130;1254;71979;-80
2023/11/12 03:10:20;;;;;;;3.40;1.40;;;;;;;9.40;100.00;97298.76;106103;1257;70748;-80
2023/11/12 03:12:47;;;;;;;1.20;1.10;;;;;;;9.37;100.00;97295.56;106104;1254;72769;-76
2023/11/12 03:15:14;;;;;;;1.40;1.00;;;;;;;9.35;100.00;97289.35;106086;1257;60361;-77
2023/11/12 03:17:41;;;;;;;1.20;1.00;;;;;;;9.33;100.00;97292.71;106051;1252;59615;-78
2023/11/12 03:20:09;;;;;;;0.90;0.90;;;;;;;9.26;100.00;97290.98;106410;1251;73073;-76
2023/11/12 03:22:36;;;;;;;1.20;0.80;;;;;;;9.20;100.00;97291.17;106540;1253;70286;-74
2023/11/12 03:25:04;;;;;;;0.70;0.70;;;;;;;9.17;100.00;97287.69;105850;1260;72526;-74
2023/11/12 03:27:32;;;;;;;0.70;0.70;;;;;;;9.15;100.00;97288.29;106023;1254;62172;-75
2023/11/12 03:29:59;;;;;;;0.70;0.70;;;;;;;9.12;100.00;97284.92;106087;1251;60172;-75
2023/11/12 03:32:26;;;;;;;1.70;0.80;;;;;;;9.08;100.00;97289.70;106060;1251;72955;-72
2023/11/12 03:34:53;;;;;;;0.90;0.70;;;;;;;9.03;100.00;97285.27;105936;1254;70155;-73
2023/11/12 03:37:20;;;;;;;0.70;0.70;;;;;;;9.01;100.00;97286.62;106012;1251;72797;-73
2023/11/12 03:39:50;;;;;;;1.00;0.90;;;;;;;8.96;100.00;97282.23;106120;1251;60565;-74
2023/11/12 03:42:17;;;;;;;1.10;0.80;;;;;;;8.91;100.00;97280.20;106120;1251;60501;-74
2023/11/12 03:44:44;;;;;;;1.00;0.90;;;;;;;8.85;100.00;97278.78;106069;1252;72713;-74
2023/11/12 03:47:11;;;;;;;1.80;0.90;;;;;;;8.80;100.00;97278.10;105975;1254;70283;-73
2023/11/12 03:49:41;;;;;;;1.00;1.00;;;;;;;8.77;100.00;97278.57;106013;1255;72758;-78
2023/11/12 03:52:08;;;;;;;1.20;1.10;;;;;;;8.70;100.00;97279.63;106188;1252;60568;-75
2023/11/12 03:54:36;;;;;;;0.80;0.80;;;;;;;8.66;100.00;97280.56;105875;1259;60901;-75
2023/11/12 03:57:03;;;;;;;1.30;0.90;;;;;;;8.64;100.00;97281.44;105964;1256;72946;-76
2023/11/12 03:59:30;;;;;;;1.10;0.80;;;;;;;8.57;100.00;97278.40;106087;1257;70171;-77
2023/11/12 04:01:57;;;;;;;0.60;0.60;;;;;;;8.52;100.00;97279.90;106229;1254;72588;-76
2023/11/12 04:04:24;;;;;;;1.00;0.80;;;;;;;8.49;100.00;97278.86;106266;1252;61822;-73
2023/11/12 04:06:51;;;;;;;0.80;0.80;;;;;;;8.45;100.00;97281.01;106172;1255;60520;-72
2023/11/12 04:09:18;;;;;;;1.50;0.90;;;;;;;8.40;100.00;97283.10;106072;1255;73947;-73
2023/11/12 04:11:45;;;;;;;1.00;0.90;;;;;;;8.37;100.00;97279.33;106019;1251;69699;-73
2023/11/12 04:14:12;;;;;;;0.90;0.80;;;;;;;8.34;100.00;97282.47;105977;1251;72689;-74
2023/11/12 04:16:40;;;;;;;1.30;1.20;;;;;;;8.31;100.00;97280.83;106074;1252;61936;-76
2023/11/12 04:19:07;;;;;;;2.10;0.90;;;;;;;8.30;100.00;97275.59;106149;1256;60321;-74
2023/11/12 04:21:35;;;;;;;2.30;1.10;;;;;;;8.31;100.00;97277.81;106112;1254;72753;-74
2023/11/12 04:24:01;;;;;;;1.00;1.00;;;;;;;8.35;100.00;97276.08;106059;1251;70143;-73
2023/11/12 04:26:29;;;;;;;0.80;0.70;;;;;;;8.32;100.00;97275.63;106127;1251;72741;-77
2023/11/12 04:28:56;;;;;;;0.70;0.70;;;;;;;8.28;100.00;97274.34;106075;1252;60450;-75
2023/11/12 04:31:23;;;;;;;0.90;0.80;;;;;;;8.23;100.00;97273.52;106088;1251;61221;-73
2023/11/12 04:33:52;;;;;;;0.70;0.70;;;;;;;8.24;100.00;97272.17;106125;1254;73631;-73
2023/11/12 04:36:20;;;;;;;1.10;0.80;;;;;;;8.23;100.00;97274.02;106149;1251;70326;-73
2023/11/12 04:38:48;;;;;;;0.90;0.80;;;;;;;8.21;100.00;97273.20;106132;1252;72847;-75
2023/11/12 04:41:14;;;;;;;2.70;1.10;;;;;;;8.21;100.00;97276.58;106153;1251;60646;-74
2023/11/12 04:43:41;;;;;;;0.80;0.80;;;;;;;8.20;100.00;97277.40;106098;1254;60367;-72
2023/11/12 04:46:08;;;;;;;0.70;0.70;;;;;;;8.17;100.00;97273.95;105831;1253;73977;-73
2023/11/12 04:48:34;;;;;;;0.50;0.50;;;;;;;8.14;100.00;97276.83;105913;1256;67947;-72
2023/11/12 04:51:01;;;;;;;0.70;0.60;;;;;;;8.13;100.00;97274.71;105849;1254;72463;-74
2023/11/12 04:53:28;;;;;;;0.80;0.70;;;;;;;8.10;100.00;97276.92;105906;1256;60629;-77
2023/11/12 04:55:55;;;;;;;1.00;1.00;;;;;;;8.05;100.00;97280.29;106103;1257;60356;-77
2023/11/12 04:58:22;;;;;;;0.80;0.80;;;;;;;8.06;100.00;97282.44;106060;1254;73653;-75
2023/11/12 05:00:50;;;;;;;2.10;1.10;;;;;;;8.04;100.00;97281.94;106073;1257;69026;-79
2023/11/12 05:03:17;;;;;;;0.90;0.90;;;;;;;7.99;100.00;97284.73;105923;1254;72690;-73
2023/11/12 05:05:44;;;;;;;0.80;0.80;;;;;;;7.92;100.00;97283.73;106088;1251;62478;-73
2023/11/12 05:08:10;;;;;;;0.60;0.60;;;;;;;7.88;100.00;97286.45;105965;1257;60290;-71
2023/11/12 05:10:37;;;;;;;1.10;0.90;;;;;;;7.82;100.00;97290.70;106107;1251;72942;-78
2023/11/12 05:13:13;;;;;;;1.10;0.70;;;;;;;7.81;100.00;97297.62;105926;1257;68841;-79
2023/11/12 05:15:40;;;;;;;1.00;0.80;;;;;;;7.82;100.00;97294.81;105930;1260;72706;-77
2023/11/12 05:18:08;;;;;;;2.90;1.40;;;;;;;7.82;100.00;97297.45;105994;1254;60754;-76
2023/11/12 05:20:35;;;;;;;0.70;0.70;;;;;;;7.81;100.00;97300.06;106172;1254;60479;-78
2023/11/12 05:23:01;;;;;;;1.20;0.70;;;;;;;7.79;100.00;97300.52;106301;1256;73782;-78
2023/11/12 05:25:28;;;;;;;1.80;0.90;;;;;;;7.75;100.00;97298.38;106087;1254;69076;-81
2023/11/12 05:27:55;;;;;;;1.90;0.90;;;;;;;7.73;100.00;97303.59;106448;1251;73231;-78
2023/11/12 05:30:25;;;;;;;1.40;1.20;;;;;;;7.72;100.00;97305.05;106426;1253;62380;-81
2023/11/12 05:32:53;;;;;;;1.40;0.80;;;;;;;7.73;100.00;97307.90;105900;1254;60424;-81
2023/11/12 05:35:22;;;;;;;2.40;1.00;;;;;;;7.75;100.00;97313.34;106258;1256;73922;-80
2023/11/12 05:37:49;;;;;;;0.70;0.70;;;;;;;7.77;100.00;97313.86;106553;1256;70102;-77
2023/11/12 05:40:15;;;;;;;0.80;0.70;;;;;;;7.78;100.00;97320.07;106095;1256;72859;-75
2023/11/12 05:42:42;;;;;;;2.40;0.80;;;;;;;7.77;100.00;97321.02;105836;1251;62012;-78
2023/11/12 05:45:09;;;;;;;1.00;0.80;;;;;;;7.77;100.00;97321.95;105953;1252;60456;-81
2023/11/12 05:47:36;;;;;;;1.10;0.80;;;;;;;7.76;100.00;97322.73;106083;1257;73830;-74
2023/11/12 05:50:03;;;;;;;1.00;0.80;;;;;;;7.77;100.00;97324.77;106010;1251;69059;-78
2023/11/12 05:52:30;;;;;;;0.80;0.80;;;;;;;7.75;100.00;97325.70;106268;1256;72517;-80
2023/11/12 05:54:57;;;;;;;0.90;0.80;;;;;;;7.73;100.00;97327.95;105902;1253;61893;-76
2023/11/12 05:57:24;;;;;;;0.90;0.80;;;;;;;7.72;100.00;97330.23;106140;1257;60472;-75
2023/11/12 05:59:50;;;;;;;0.90;0.80;;;;;;;7.74;100.00;97336.31;105948;1254;73859;-77
2023/11/12 06:02:17;;;;;;;0.90;0.80;;;;;;;7.74;100.00;97337.24;106095;1256;71537;-78
2023/11/12 06:04:44;;;;;;;1.60;1.00;;;;;;;7.75;100.00;97340.06;106142;1252;71712;-78
2023/11/12 06:07:11;;;;;;;1.00;0.90;;;;;;;7.74;100.00;97342.77;106062;1254;61833;-79
2023/11/12 06:09:38;;;;;;;1.30;1.00;;;;;;;7.72;100.00;97343.88;106091;1252;60378;-80
2023/11/12 06:12:06;;;;;;;1.70;1.10;;;;;;;7.71;100.00;97342.09;106131;1251;73748;-78
2023/11/12 06:14:35;;;;;;;1.80;1.00;;;;;;;7.72;100.00;97343.40;106060;1257;69595;-81
2023/11/12 06:17:04;;;;;;;1.00;0.90;;;;;;;7.72;100.00;97341.52;106146;1257;71381;-80
2023/11/12 06:19:31;;;;;;;1.00;0.80;;;;;;;7.71;100.00;97343.97;106295;1251;60758;-82
2023/11/12 06:22:00;;;;;;;1.60;1.10;;;;;;;7.70;100.00;97343.20;106118;1251;60370;-81
2023/11/12 06:24:26;;;;;;;1.80;1.10;;;;;;;7.67;100.00;97344.67;106228;1252;72474;-78
2023/11/12 06:26:53;;;;;;;1.20;1.00;;;;;;;7.68;100.00;97344.05;107007;1257;70332;-79
2023/11/12 06:29:20;;;;;;;1.00;0.90;;;;;;;7.68;100.00;97343.69;106803;1254;73060;-80
2023/11/12 06:31:48;;;;;;;1.70;0.90;;;;;;;7.71;100.00;97344.81;107397;1252;62235;-81
2023/11/12 06:34:14;;;;;;;1.30;0.90;;;;;;;7.73;100.00;97349.70;106934;1251;60618;-82
2023/11/12 06:36:41;;;;;;;2.00;1.20;;;;;;;7.73;100.00;97349.48;106621;1257;73688;-79
2023/11/12 06:39:13;;;;;;;2.20;0.90;;;;;;;7.76;100.00;97353.91;106776;1259;70122;-80
2023/11/12 06:41:41;;;;;;;1.30;1.00;;;;;;;7.79;100.00;97358.02;106193;1255;72503;-80
2023/11/12 06:44:09;;;;;;;1.00;0.80;;;;;;;7.79;100.00;97356.64;106567;1251;61842;-80
2023/11/12 06:46:45;;;;;;;1.10;0.80;;;;;;;7.78;100.00;97361.11;106057;1254;60430;-80
2023/11/12 06:49:12;;;;;;;2.30;0.90;;;;;;;7.77;100.00;97361.56;106116;1253;73827;-78
2023/11/12 06:51:39;;;;;;;1.30;1.00;;;;;;;7.76;100.00;97364.41;105987;1267;68184;-81
2023/11/12 06:54:08;;;;;;;1.00;0.90;;;;;;;7.73;100.00;97373.89;106101;1257;72597;-82
2023/11/12 06:56:35;;;;;;;1.10;0.90;;;;;;;7.72;100.00;97368.57;106350;1252;60473;-79
2023/11/12 06:59:02;;;;;;;2.10;1.20;;;;;;;7.70;100.00;97368.65;106331;1256;60523;-80
2023/11/12 07:01:29;;;;;;;1.30;1.10;;;;;;;7.70;100.00;97372.39;106192;1251;73767;-81
2023/11/12 07:03:56;;;;;;;0.80;0.80;;;;;;;7.68;100.00;97377.23;105903;1257;70170;-81
2023/11/12 07:06:23;;;;;;;1.20;0.90;;;;;;;7.67;100.00;97377.52;106217;1255;72506;-83
2023/11/12 07:08:50;;;;;;;0.90;0.90;;;;;;;7.68;100.00;97378.94;106122;1251;61860;-79
2023/11/12 07:11:17;;;;;;;1.10;0.90;;;;;;;7.70;100.00;97378.16;106100;1252;60414;-79
2023/11/12 07:13:44;;;;;;;1.30;0.90;;;;;;;7.70;100.00;97380.52;105923;1257;75304;-79
2023/11/12 07:16:16;;;;;;;1.10;0.90;;;;;;;7.69;100.00;97379.80;105900;1263;68601;-78
2023/11/12 07:18:44;;;;;;;1.00;0.90;;;;;;;7.69;100.00;97383.81;105768;1254;71439;-79
2023/11/12 07:21:24;;;;;;;0.90;0.90;;;;;;;7.69;100.00;97386.36;106050;1251;61849;-80
2023/11/12 07:23:52;;;;;;;1.60;1.10;;;;;;;7.66;100.00;97385.41;106103;1256;60458;-76
2023/11/12 07:26:18;;;;;;;1.80;1.40;;;;;;;7.63;100.00;97388.22;106026;1251;72516;-80
2023/11/12 07:28:45;;;;;;;2.00;1.60;;;;;;;7.60;100.00;97392.77;106168;1256;71683;-79
2023/11/12 07:31:13;;;;;;;2.20;1.50;;;;;;;7.59;100.00;97392.74;105988;1253;72582;-79
2023/11/12 07:33:40;;;;;;;2.00;1.50;;;;;;;7.58;100.00;97392.99;106254;1251;61999;-79
2023/11/12 07:36:07;;;;;;;1.40;1.30;;;;;;;7.59;100.00;97393.02;106162;1251;61395;-78
2023/11/12 07:38:35;;;;;;;1.40;1.30;;;;;;;7.61;100.00;97394.33;106545;1256;73530;-76
2023/11/12 07:41:03;;;;;;;2.00;1.40;;;;;;;7.61;100.00;97397.00;106194;1257;68896;-78
2023/11/12 07:43:29;;;;;;;1.40;1.20;;;;;;;7.56;100.00;97396.45;106151;1254;72525;-75
2023/11/12 07:45:56;;;;;;;1.40;1.30;;;;;;;7.55;100.00;97399.44;106132;1251;60396;-76
2023/11/12 07:48:23;;;;;;;2.10;1.20;;;;;;;7.56;100.00;97402.30;106243;1251;60431;-77
2023/11/12 07:50:50;;;;;;;0.80;0.80;;;;;;;7.56;100.00;97408.16;106493;1255;73847;-79
2023/11/12 07:53:17;;;;;;;1.40;1.10;;;;;;;7.55;100.00;97408.58;108693;1253;70261;-82
2023/11/12 07:55:44;;;;;;;1.80;1.10;;;;;;;7.55;100.00;97410.68;107677;1252;71236;-86
2023/11/12 07:58:11;;;;;;;1.20;1.10;;;;;;;7.56;100.00;97414.98;108321;1251;60608;-81
2023/11/12 08:00:38;;;;;;;1.30;1.20;;;;;;;7.58;100.00;97417.09;107256;1251;60487;-86
2023/11/12 08:03:04;;;;;;;0.80;0.80;;;;;;;7.61;100.00;97418.67;106776;1257;72666;-84
2023/11/12 08:05:31;;;;;;;1.10;1.00;;;;;;;7.63;100.00;97425.70;106841;1256;69262;-81
2023/11/12 08:07:58;;;;;;;1.50;1.00;;;;;;;7.63;100.00;97430.50;106719;1252;72535;-79
2023/11/12 08:10:25;;;;;;;1.20;0.90;;;;;;;7.63;100.00;97430.70;108297;1257;59209;-81
2023/11/12 08:12:52;;;;;;;1.20;1.10;;;;;;;7.60;100.00;97431.52;107814;1256;60345;-81
2023/11/12 08:15:19;;;;;;;1.10;1.10;;;;;;;7.62;100.00;97433.23;106459;1251;73707;-80
2023/11/12 08:17:47;;;;;;;1.10;1.00;;;;;;;7.62;100.00;97434.16;106716;1251;70882;-82
2023/11/12 08:20:14;;;;;;;1.30;1.20;;;;;;;7.63;100.00;97436.20;106302;1254;72592;-80
2023/11/12 08:22:41;;;;;;;1.10;1.00;;;;;;;7.63;100.00;97435.83;106178;1259;62115;-82
2023/11/12 08:25:11;;;;;;;1.50;1.30;;;;;;;7.62;100.00;97438.42;106347;1251;60408;-81
2023/11/12 08:27:38;;;;;;;1.20;1.10;;;;;;;7.61;100.00;97443.84;106256;1254;74251;-80
2023/11/12 08:30:05;;;;;;;1.40;1.30;;;;;;;7.60;100.00;97443.42;106692;1251;71286;-82
2023/11/12 08:32:35;;;;;;;1.10;1.00;;;;;;;7.61;100.00;97446.53;106487;1251;72700;-81
2023/11/12 08:35:02;;;;;;;1.50;1.30;;;;;;;7.62;100.00;97446.36;106131;1251;61956;-82
2023/11/12 08:37:29;;;;;;;1.40;1.20;;;;;;;7.63;100.00;97447.98;106852;1251;60474;-81
2023/11/12 08:39:56;;;;;;;1.40;1.10;;;;;;;7.64;100.00;97450.70;107314;1251;72386;-80
2023/11/12 08:42:23;;;;;;;1.20;1.10;;;;;;;7.64;100.00;97453.14;107567;1251;70191;-79
2023/11/12 08:44:50;;;;;;;1.90;1.40;;;;;;;7.64;100.00;97453.17;106293;1254;72568;-81
2023/11/12 08:47:19;;;;;;;1.30;1.10;;;;;;;7.63;100.00;97455.34;106449;1252;60721;-85
2023/11/12 08:49:46;;;;;;;2.10;1.20;;;;;;;7.66;100.00;97453.55;106613;1257;60398;-84
2023/11/12 08:52:14;;;;;;;1.10;1.00;;;;;;;7.71;100.00;97453.55;106278;1251;73544;-80
2023/11/12 08:54:41;;;;;;;2.40;1.50;;;;;;;7.72;100.00;97450.49;106305;1251;69149;-79
2023/11/12 08:57:09;;;;;;;1.80;1.60;;;;;;;7.71;100.00;97456.64;106339;1251;70797;-78
2023/11/12 08:59:36;;;;;;;1.50;1.40;;;;;;;7.71;100.00;97460.49;106231;1251;61775;-79
2023/11/12 09:02:06;;;;;;;1.60;1.30;;;;;;;7.71;100.00;97458.95;106817;1251;60004;-79
2023/11/12 09:04:36;;;;;;;2.10;1.90;;;;;;;7.71;100.00;97462.65;107889;1251;73649;-82
2023/11/12 09:07:04;;;;;;;2.20;1.50;;;;;;;7.71;100.00;97464.27;107935;1251;68901;-82
2023/11/12 09:09:32;;;;;;;1.90;1.60;;;;;;;7.70;100.00;97465.50;107352;1256;71671;-82
2023/11/12 09:12:00;;;;;;;3.00;1.90;;;;;;;7.69;100.00;97466.39;109053;1251;60476;-81
2023/11/12 09:14:28;;;;;;;1.60;1.40;;;;;;;7.72;100.00;97465.17;109536;1251;58710;-82
2023/11/12 09:16:55;;;;;;;2.20;1.50;;;;;;;7.74;100.00;97466.35;109520;1253;72424;-81
2023/11/12 09:19:22;;;;;;;2.60;1.30;;;;;;;7.72;100.00;97467.09;109493;1251;69024;-81
2023/11/12 09:21:49;;;;;;;1.10;1.10;;;;;;;7.75;100.00;97470.73;109593;1251;72807;-82
2023/11/12 09:24:16;;;;;;;1.20;1.10;;;;;;;7.80;100.00;97470.04;109348;1253;60398;-77
2023/11/12 09:26:43;;;;;;;1.70;1.60;;;;;;;7.83;100.00;97476.22;109121;1251;59125;-81
2023/11/12 09:29:11;;;;;;;2.60;1.40;;;;;;;7.86;100.00;97479.10;109632;1251;72278;-82
2023/11/12 09:31:38;;;;;;;2.60;1.90;;;;;;;7.90;100.00;97480.88;109652;1251;68935;-84
2023/11/12 09:34:05;;;;;;;2.30;1.30;;;;;;;7.93;100.00;97479.78;109611;1257;71440;-85
2023/11/12 09:36:33;;;;;;;2.50;1.50;;;;;;;7.96;100.00;97480.65;109634;1251;59467;-83
2023/11/12 09:39:03;;;;;;;2.00;1.50;;;;;;;7.96;100.00;97484.16;109929;1251;58932;-85
2023/11/12 09:41:31;;;;;;;1.40;1.30;;;;;;;7.95;100.00;97486.05;109590;1252;72367;-84
2023/11/12 09:44:03;;;;;;;1.40;1.20;;;;;;;7.96;100.00;97489.98;109566;1254;69042;-84
2023/11/12 09:46:37;;;;;;;2.30;1.40;;;;;;;7.99;100.00;97487.45;109645;1254;71313;-85
2023/11/12 09:49:05;;;;;;;2.00;1.50;;;;;;;8.01;100.00;97485.33;109537;1253;59115;-86
2023/11/12 09:51:36;;;;;;;3.00;1.60;;;;;;;8.02;100.00;97485.83;109398;1253;59230;-86
2023/11/12 09:54:03;;;;;;;1.10;1.00;;;;;;;8.02;100.00;97484.12;109614;1254;72618;-87
2023/11/12 09:56:33;;;;;;;1.50;1.40;;;;;;;8.00;100.00;97485.82;109684;1251;69765;-85
2023/11/12 09:59:02;;;;;;;1.10;1.00;;;;;;;7.98;100.00;97487.02;109320;1251;71072;-84
2023/11/12 10:01:29;;;;;;;1.00;1.00;;;;;;;7.95;100.00;97486.97;109519;1251;60696;-87
2023/11/12 10:03:56;;;;;;;1.50;1.10;;;;;;;7.90;100.00;97488.65;109432;1251;60392;-85
2023/11/12 10:06:23;;;;;;;1.30;1.00;;;;;;;7.85;99.90;97490.73;109444;1251;71452;-83
2023/11/12 10:08:51;;;;;;;1.70;1.20;;;;;;;7.79;99.85;97498.14;109552;1252;70151;-83
2023/11/12 10:11:18;;;;;;;1.60;1.10;;;;;;;7.78;99.99;97497.98;109707;1251;71436;-83
2023/11/12 10:13:46;;;;;;;1.40;1.30;;;;;;;7.81;100.00;97495.29;109554;1251;60550;-84
2023/11/12 10:16:25;;;;;;;3.10;1.40;;;;;;;7.85;100.00;97498.42;109285;1253;60282;-83
2023/11/12 10:18:52;;;;;;;1.60;1.20;;;;;;;7.91;100.00;97503.20;109546;1251;72592;-83
2023/11/12 10:21:19;;;;;;;1.40;1.30;;;;;;;7.94;100.00;97507.51;109670;1251;70877;-83
2023/11/12 10:24:03;;;;;;;2.00;1.40;;;;;;;7.97;100.00;97505.71;109783;1252;71363;-81
2023/11/12 10:26:38;;;;;;;1.50;1.40;;;;;;;7.98;100.00;97505.19;109582;1252;62151;-82
2023/11/12 10:29:07;;;;;;;1.70;1.20;;;;;;;7.97;100.00;97511.62;109616;1251;60316;-83
2023/11/12 10:31:38;;;;;;;2.70;2.00;;;;;;;7.94;99.86;97513.08;109349;1251;71539;-83
2023/11/12 10:34:06;;;;;;;1.50;1.30;;;;;;;7.91;99.73;97515.13;109575;1251;69085;-83
2023/11/12 10:36:33;;;;;;;1.60;1.20;;;;;;;7.91;99.92;97516.59;109626;1251;71931;-85
2023/11/12 10:39:09;;;;;;;2.00;1.40;;;;;;;7.90;100.00;97519.85;109326;1251;61036;-84
2023/11/12 10:41:37;;;;;;;1.80;1.60;;;;;;;7.95;100.00;97519.02;109274;1253;60272;-84
2023/11/12 10:44:07;;;;;;;1.50;1.40;;;;;;;8.00;100.00;97521.70;108156;1251;72450;-81
2023/11/12 10:46:38;;;;;;;1.60;1.40;;;;;;;8.01;100.00;97524.46;108329;1251;70440;-84
2023/11/12 10:49:08;;;;;;;1.60;1.40;;;;;;;8.02;100.00;97525.03;107829;1253;72896;-85
2023/11/12 10:51:39;;;;;;;1.60;1.50;;;;;;;8.01;99.25;97529.75;107245;1251;60636;-84
2023/11/12 10:54:06;;;;;;;2.20;1.40;;;;;;;7.98;99.05;97531.75;107074;1257;60342;-83
2023/11/12 10:56:33;;;;;;;1.80;1.40;;;;;;;7.96;98.83;97534.69;106867;1251;73857;-83
2023/11/12 10:59:00;;;;;;;1.70;1.60;;;;;;;7.92;99.11;97540.27;107874;1251;70429;-83
2023/11/12 11:01:27;;;;;;;1.70;1.60;;;;;;;7.89;98.73;97541.77;107778;1254;72674;-83
2023/11/12 11:03:55;;;;;;;1.80;1.40;;;;;;;7.88;98.71;97543.32;106835;1253;61775;-81
2023/11/12 11:06:23;;;;;;;1.20;1.10;;;;;;;7.88;98.11;97546.70;106587;1251;60300;-82
2023/11/12 11:08:50;;;;;;;1.40;1.30;;;;;;;7.89;98.32;97546.29;106164;1257;74990;-83
2023/11/12 11:11:21;;;;;;;2.20;1.40;;;;;;;7.90;99.33;97548.40;106398;1251;69344;-82
2023/11/12 11:13:49;;;;;;;1.80;1.40;;;;;;;7.95;99.79;97546.88;106077;1257;72664;-83
2023/11/12 11:16:52;;;;;;;1.40;1.10;;;;;;;8.04;99.91;97554.98;106365;1251;60611;-84
2023/11/12 11:19:44;;;;;;;1.80;1.60;;;;;;;8.06;99.73;97556.08;106538;1254;60428;-83
2023/11/12 11:22:29;;;;;;;2.30;1.60;;;;;;;8.06;99.54;97561.45;106920;1252;71828;-85
2023/11/12 11:24:56;;;;;;;3.90;1.80;;;;;;;8.02;98.49;97567.10;106533;1256;69242;-85
2023/11/12 11:27:25;;;;;;;2.40;1.80;;;;;;;7.97;99.10;97569.46;107628;1253;72071;-85